Meteo Giornale » Osservazioni meteo Stati Uniti (USA) » Islip Long Island Mac Arthur

ore: 05:56 - Osservazioni Meteo Islip Long Island Mac Arthur
Lat. 40° 47' N Lon. 73° 6' W Alt. 30 metri s.l.m.

coperto America/New_York

22 °C

Coperto

Temp. 24 Ore

14 °C

24 °C

Sud-Est

14.8 Km/h

Dew point 21 °C

Umidità 94 %

Visibilità  10 Km

Il sole sorge alle ore 06:39

Il sole tramonta alle ore 18:50

Data e Ora Cielo e Fenomeni T °C DP °C Um. % Pres. hPa Vis. km Vento km/h
Oggi h: 05:56 coperto Coperto 22 21 94 1021 10 SE 14.8
Oggi h: 04:56 coperto Coperto 22 21 94 1022 10 SE 13
Oggi h: 04:47 molto_nuvoloso Molto Nuvoloso 22 21 94 1022 10 SE 9.3
Oggi h: 03:56 coperto Coperto 22 21 94 1022 10 E/SE 13
Oggi h: 02:56 nuvoloso Nuvoloso 22 21 94 1022 10 SE 9.3
Oggi h: 02:53 poco_nuvoloso Poco Nuvoloso 22 21 94 1023 10 SE 13
Oggi h: 01:56 sereno Sereno 22 21 94 1023 10 E/SE 11.1
Oggi h: 01:02 coperto Coperto 22 21 94 1023 10 E 7.4
Oggi h: 00:56 coperto Coperto 22 21 94 1024 10 E 11.1
Oggi h: 00:50 coperto Coperto 22 21 94 1024 10 E/SE 11.1
Ieri h: 23:18 molto_nuvoloso Molto Nuvoloso 20 19 93 1024 10 N 0
Ieri h: 22:56 molto_nuvoloso Molto Nuvoloso 20 19 93 1024 10 E 7.4
Ieri h: 20:56 molto_nuvoloso Molto Nuvoloso 21 18 82 1025 10 E 11.1
Ieri h: 19:56 molto_nuvoloso Molto Nuvoloso 21 19 88 1025 10 E 7.4
Ieri h: 17:56 molto_nuvoloso Molto Nuvoloso 23 18 73 1025 10 E 14.8
Ieri h: 16:56 molto_nuvoloso Molto Nuvoloso 23 18 73 1026 10 SE 13
Ieri h: 15:56 nuvoloso Nuvoloso 24 18 69 1026 10 SE 20.3
Ieri h: 14:56 molto_nuvoloso Molto Nuvoloso 24 18 69 1026 10 SE 22.2
Ieri h: 13:56 molto_nuvoloso Molto Nuvoloso 24 18 69 1027 10 SE 22.2
Ieri h: 12:56 molto_nuvoloso Molto Nuvoloso 24 18 69 1027 10 E/SE 20.3
Ieri h: 11:56 molto_nuvoloso Molto Nuvoloso 24 18 69 1028 10 SE 18.5
Ieri h: 10:40 coperto Coperto 22 16 68 1028 10 E/SE 9.3
Ieri h: 09:56 molto_nuvoloso Molto Nuvoloso 21 15 68 1028 10 E 11.1
Ieri h: 08:56 nuvoloso Nuvoloso 19 13 68 1028 10 E 9.3
Ieri h: 07:56 nuvoloso Nuvoloso 17 12 72 1028 10 E/NE 7.4
Ieri h: 06:56 molto_nuvoloso Molto Nuvoloso 14 12 87 1027 10 N 0